createdAt,value
2023-03-14T00:00:35.764Z,10.02
2023-03-14T00:03:22.831Z,10.12
2023-03-14T00:05:55.936Z,10.22
2023-03-14T00:08:27.213Z,10.30
2023-03-14T00:11:00.706Z,10.38
2023-03-14T00:13:32.786Z,10.45
2023-03-14T00:16:08.132Z,10.50
2023-03-14T00:18:39.855Z,10.56
2023-03-14T00:21:11.915Z,10.60
2023-03-14T00:23:44.146Z,10.64
2023-03-14T00:26:15.815Z,10.70
2023-03-14T00:28:47.115Z,10.75
2023-03-14T00:31:18.228Z,10.81
2023-03-14T00:33:49.568Z,10.83
2023-03-14T00:36:21.546Z,10.86
2023-03-14T00:38:53.294Z,10.91
2023-03-14T00:41:27.445Z,10.97
2023-03-14T00:43:58.691Z,11.05
2023-03-14T00:46:32.014Z,11.11
2023-03-14T00:49:08.652Z,11.13
2023-03-14T00:51:39.881Z,11.15
2023-03-14T00:54:11.124Z,11.16
2023-03-14T00:56:42.038Z,11.17
2023-03-14T00:59:13.525Z,11.17
2023-03-14T01:01:44.898Z,11.17
2023-03-14T01:04:17.576Z,11.17
2023-03-14T01:06:51.461Z,11.18
2023-03-14T01:09:23.310Z,11.17
2023-03-14T01:11:54.003Z,11.17
2023-03-14T01:14:25.291Z,11.17
2023-03-14T01:17:01.794Z,11.19
2023-03-14T01:19:33.807Z,11.20
2023-03-14T01:22:04.497Z,11.22
2023-03-14T01:24:35.625Z,11.25
2023-03-14T01:27:06.884Z,11.27
2023-03-14T01:29:38.717Z,11.28
2023-03-14T01:32:10.132Z,11.28
2023-03-14T01:34:41.604Z,11.29
2023-03-14T01:37:13.319Z,11.29
2023-03-14T01:39:45.669Z,11.29
2023-03-14T01:42:16.773Z,11.29
2023-03-14T01:44:52.010Z,11.28
2023-03-14T01:47:23.524Z,11.25
2023-03-14T01:49:56.445Z,11.22
2023-03-14T01:52:30.260Z,11.20
2023-03-14T01:55:04.704Z,11.16
2023-03-14T01:57:38.891Z,11.13
2023-03-14T02:00:14.596Z,11.08
2023-03-14T02:02:47.007Z,11.04
2023-03-14T02:05:21.747Z,11.00
2023-03-14T02:08:00.256Z,10.97
2023-03-14T02:10:41.282Z,10.96
2023-03-14T02:13:16.783Z,10.94
2023-03-14T02:15:50.759Z,10.94
2023-03-14T02:18:41.819Z,10.92
2023-03-14T02:21:52.056Z,10.90
2023-03-14T02:24:30.793Z,10.88
2023-03-14T02:27:08.576Z,10.86
2023-03-14T02:29:47.903Z,10.84
2023-03-14T02:32:20.554Z,10.81
2023-03-14T02:34:53.696Z,10.80
2023-03-14T02:37:29.949Z,10.78
2023-03-14T02:40:01.274Z,10.77
2023-03-14T02:42:32.474Z,10.75
2023-03-14T02:45:23.634Z,10.74
2023-03-14T02:47:57.630Z,10.73
2023-03-14T02:50:31.936Z,10.72
2023-03-14T02:53:03.558Z,10.70
2023-03-14T02:55:34.920Z,10.67
2023-03-14T02:58:15.216Z,10.64
2023-03-14T03:00:47.173Z,10.60
2023-03-14T03:03:18.780Z,10.58
2023-03-14T03:05:51.742Z,10.58
2023-03-14T03:08:25.044Z,10.60
2023-03-14T03:10:56.789Z,10.62
2023-03-14T03:13:29.261Z,10.65
2023-03-14T03:16:02.774Z,10.67
2023-03-14T03:18:33.804Z,10.70
2023-03-14T03:21:05.010Z,10.73
2023-03-14T03:23:36.155Z,10.77
2023-03-14T03:26:11.367Z,10.79
2023-03-14T03:28:42.904Z,10.80
2023-03-14T03:31:14.709Z,10.81
2023-03-14T03:33:45.791Z,10.81
2023-03-14T03:36:16.553Z,10.79
2023-03-14T03:38:55.828Z,10.78
2023-03-14T03:41:26.562Z,10.77
2023-03-14T03:43:58.183Z,10.76
2023-03-14T03:46:29.026Z,10.75
2023-03-14T03:49:01.243Z,10.75
2023-03-14T03:51:33.025Z,10.75
2023-03-14T03:54:04.424Z,10.75
2023-03-14T03:56:37.450Z,10.76
2023-03-14T03:59:08.861Z,10.76
2023-03-14T04:01:40.151Z,10.77
2023-03-14T04:04:11.825Z,10.76
2023-03-14T04:06:43.322Z,10.65
2023-03-14T04:09:14.779Z,10.53
2023-03-14T04:12:02.529Z,10.40
2023-03-14T04:14:43.414Z,10.28
2023-03-14T04:17:21.817Z,10.17
2023-03-14T04:19:55.110Z,10.07
2023-03-14T04:22:28.834Z,9.98
2023-03-14T04:25:00.030Z,9.87
2023-03-14T04:27:30.766Z,9.79
2023-03-14T04:30:02.657Z,9.70
2023-03-14T04:32:50.972Z,9.63
2023-03-14T04:35:24.085Z,9.56
2023-03-14T04:37:57.954Z,9.52
2023-03-14T04:40:29.749Z,9.47
2023-03-14T04:43:04.871Z,9.43
2023-03-14T04:45:36.508Z,9.37
2023-03-14T04:48:10.010Z,9.27
2023-03-14T04:50:43.367Z,9.14
2023-03-14T04:53:14.682Z,9.00
2023-03-14T04:55:51.161Z,9.26
2023-03-14T04:58:22.522Z,10.69
2023-03-14T05:00:54.516Z,11.73
2023-03-14T05:03:46.096Z,11.07
2023-03-14T05:06:32.039Z,10.31
2023-03-14T05:09:31.741Z,9.74
2023-03-14T05:12:18.848Z,9.33
2023-03-14T05:15:03.567Z,9.01
2023-03-14T05:17:45.531Z,8.76
2023-03-14T05:20:39.896Z,8.54
2023-03-14T05:23:25.260Z,8.45
2023-03-14T05:26:02.058Z,9.39
2023-03-14T05:28:56.720Z,10.97
2023-03-14T05:31:34.987Z,11.95
2023-03-14T05:34:35.077Z,12.34
2023-03-14T05:37:31.932Z,11.47
2023-03-14T05:40:26.822Z,10.71
2023-03-14T05:43:09.433Z,10.25
2023-03-14T05:45:41.415Z,9.93
2023-03-14T05:48:30.561Z,9.64
2023-03-14T05:51:11.341Z,9.39
2023-03-14T05:54:11.071Z,9.14
2023-03-14T05:57:00.510Z,9.01
2023-03-14T05:59:49.411Z,8.91
2023-03-14T06:02:39.974Z,9.21
2023-03-14T06:05:16.761Z,10.78
2023-03-14T06:07:54.423Z,11.85
2023-03-14T06:10:25.381Z,11.42
2023-03-14T06:12:57.159Z,10.81
2023-03-14T06:15:28.373Z,10.43
2023-03-14T06:18:01.781Z,10.13
2023-03-14T06:20:34.258Z,9.87
2023-03-14T06:23:10.102Z,9.70
2023-03-14T06:25:41.062Z,9.60
2023-03-14T06:28:12.376Z,9.56
2023-03-14T06:30:42.987Z,9.55
2023-03-14T06:33:15.189Z,9.56
2023-03-14T06:35:46.364Z,9.87
2023-03-14T06:38:17.738Z,11.25
2023-03-14T06:40:51.028Z,12.68
2023-03-14T06:43:34.064Z,13.41
2023-03-14T06:46:04.886Z,12.93
2023-03-14T06:48:36.961Z,12.42
2023-03-14T06:51:10.963Z,12.11
2023-03-14T06:53:42.445Z,11.94
2023-03-14T06:56:13.902Z,11.87
2023-03-14T06:58:48.273Z,11.82
2023-03-14T07:01:26.111Z,11.78
2023-03-14T07:04:02.248Z,11.76
2023-03-14T07:06:33.221Z,11.78
2023-03-14T07:09:04.673Z,11.79
2023-03-14T07:11:37.367Z,11.87
2023-03-14T07:14:09.618Z,12.02
2023-03-14T07:16:40.872Z,12.16
2023-03-14T07:19:12.217Z,12.32
2023-03-14T07:21:43.426Z,12.48
2023-03-14T07:24:16.381Z,12.63
2023-03-14T07:26:47.216Z,12.78
2023-03-14T07:29:18.531Z,12.95
2023-03-14T07:31:52.899Z,13.05
2023-03-14T07:34:25.148Z,13.19
2023-03-14T07:36:55.859Z,13.36
2023-03-14T07:39:27.140Z,13.55
2023-03-14T07:42:08.832Z,13.65
2023-03-14T07:45:15.143Z,13.78
2023-03-14T07:47:46.086Z,13.88
2023-03-14T07:50:18.528Z,14.00
2023-03-14T07:52:49.607Z,14.08
2023-03-14T07:55:23.501Z,14.17
2023-03-14T07:57:54.263Z,14.26
2023-03-14T08:00:28.224Z,14.35
2023-03-14T08:02:58.805Z,14.41
2023-03-14T08:05:30.058Z,14.50
2023-03-14T08:08:00.814Z,14.60
2023-03-14T08:10:32.274Z,14.70
2023-03-14T08:13:03.208Z,14.73
2023-03-14T08:15:36.219Z,14.77
2023-03-14T08:18:07.906Z,14.83
2023-03-14T08:20:39.463Z,14.90
2023-03-14T08:23:10.673Z,14.95
2023-03-14T08:25:42.139Z,14.95
2023-03-14T08:28:15.227Z,14.93
2023-03-14T08:30:47.788Z,14.88
2023-03-14T08:33:20.911Z,14.86
2023-03-14T08:35:53.686Z,14.86
2023-03-14T08:38:26.362Z,14.91
2023-03-14T08:41:01.061Z,14.97
2023-03-14T08:43:32.062Z,15.06
2023-03-14T08:46:03.843Z,15.16
2023-03-14T08:48:34.887Z,15.27
2023-03-14T08:51:09.572Z,15.37
2023-03-14T08:53:41.022Z,15.46
2023-03-14T08:56:12.725Z,15.47
2023-03-14T08:58:43.375Z,15.55
2023-03-14T09:01:14.778Z,15.57
2023-03-14T09:03:45.769Z,15.55
2023-03-14T09:06:19.254Z,15.48
2023-03-14T09:08:48.541Z,15.50
2023-03-14T09:11:26.068Z,15.48
2023-03-14T09:13:57.104Z,15.34
2023-03-14T09:16:30.214Z,15.26
2023-03-14T09:19:02.659Z,15.13
2023-03-14T09:21:33.705Z,15.06
2023-03-14T09:24:04.940Z,15.04
2023-03-14T09:26:35.914Z,15.08
2023-03-14T09:29:06.925Z,15.20
2023-03-14T09:31:38.206Z,15.19
2023-03-14T09:34:09.936Z,15.13
2023-03-14T09:36:41.334Z,15.20
2023-03-14T09:39:43.431Z,15.25
2023-03-14T09:42:15.407Z,15.28
2023-03-14T09:44:50.847Z,15.33
2023-03-14T09:47:22.956Z,15.37
2023-03-14T09:49:54.971Z,15.50
2023-03-14T09:52:27.042Z,15.56
2023-03-14T09:54:59.596Z,15.64
2023-03-14T09:57:31.164Z,15.61
2023-03-14T10:00:06.420Z,15.69
2023-03-14T10:02:41.132Z,15.84
2023-03-14T10:05:16.880Z,15.91
2023-03-14T10:07:48.329Z,15.92
2023-03-14T10:10:20.971Z,15.92
2023-03-14T10:12:58.331Z,16.01
2023-03-14T10:15:29.850Z,16.13
2023-03-14T10:18:01.812Z,16.26
2023-03-14T10:20:37.342Z,16.38
2023-03-14T10:23:20.772Z,16.47
2023-03-14T10:26:01.866Z,16.40
2023-03-14T10:28:34.884Z,16.52
2023-03-14T10:31:05.939Z,16.59
2023-03-14T10:33:38.614Z,16.68
2023-03-14T10:36:22.084Z,16.67
2023-03-14T10:38:59.185Z,16.60
2023-03-14T10:41:33.884Z,16.51
2023-03-14T10:44:08.317Z,16.56
2023-03-14T10:46:39.436Z,16.61
2023-03-14T10:49:31.421Z,16.60
2023-03-14T10:52:15.299Z,16.48
2023-03-14T10:54:49.049Z,16.46
2023-03-14T10:57:21.934Z,16.21
2023-03-14T10:59:51.097Z,16.06
2023-03-14T11:02:30.361Z,15.96
2023-03-14T11:05:05.974Z,15.88
2023-03-14T11:07:39.512Z,15.87
2023-03-14T11:10:14.060Z,15.86
2023-03-14T11:12:51.081Z,15.81
2023-03-14T11:15:24.671Z,15.80
2023-03-14T11:17:53.779Z,15.74
2023-03-14T11:20:33.413Z,15.63
2023-03-14T11:23:06.655Z,15.57
2023-03-14T11:25:35.794Z,15.51
2023-03-14T11:28:11.997Z,15.48
2023-03-14T11:30:45.668Z,15.49
2023-03-14T11:33:18.264Z,15.52
2023-03-14T11:35:51.641Z,15.49
2023-03-14T11:38:21.034Z,15.47
2023-03-14T11:40:53.693Z,15.48
2023-03-14T11:43:29.820Z,15.48
2023-03-14T11:46:06.425Z,15.47
2023-03-14T11:48:44.409Z,15.52
2023-03-14T11:51:19.707Z,15.50
2023-03-14T11:53:54.101Z,15.49
2023-03-14T11:56:29.519Z,15.44
2023-03-14T11:59:04.181Z,15.31
2023-03-14T12:01:42.756Z,15.25
2023-03-14T12:04:16.646Z,15.23
2023-03-14T12:06:49.636Z,15.14
2023-03-14T12:09:21.502Z,15.08
2023-03-14T13:04:12.576Z,15.44
2023-03-14T13:06:52.413Z,15.40
2023-03-14T13:09:36.695Z,15.33
2023-03-14T13:12:12.248Z,15.26
2023-03-14T13:14:46.688Z,15.18
2023-03-14T13:17:37.958Z,15.13
2023-03-14T13:20:13.924Z,15.01
2023-03-14T13:22:49.570Z,14.94
2023-03-14T13:25:22.447Z,14.87
2023-03-14T13:27:56.618Z,14.84
2023-03-14T13:30:28.934Z,14.87
2023-03-14T13:33:05.743Z,14.78
2023-03-14T13:35:44.480Z,14.82
2023-03-14T13:38:22.605Z,14.71
2023-03-14T13:40:55.158Z,14.68
2023-03-14T13:43:29.772Z,14.61
2023-03-14T13:46:05.286Z,14.55
2023-03-14T13:48:37.676Z,14.53
2023-03-14T13:51:10.744Z,14.50
2023-03-14T13:53:47.040Z,14.46
2023-03-14T13:56:28.368Z,14.42
2023-03-14T13:59:00.080Z,14.38
2023-03-14T14:01:32.943Z,14.34
2023-03-14T14:04:11.303Z,14.32
2023-03-14T14:06:49.437Z,14.29
2023-03-14T14:09:24.932Z,14.25
2023-03-14T14:12:14.494Z,14.24
2023-03-14T14:14:50.686Z,14.21
2023-03-14T14:17:20.535Z,14.17
2023-03-14T14:19:55.370Z,14.10
2023-03-14T14:22:26.990Z,13.98
2023-03-14T14:24:58.582Z,13.86
2023-03-14T14:27:33.478Z,13.74
2023-03-14T14:30:06.337Z,13.63
2023-03-14T14:32:43.810Z,13.57
2023-03-14T14:35:24.545Z,13.49
2023-03-14T14:37:55.647Z,13.46
2023-03-14T14:40:28.306Z,13.42
2023-03-14T14:43:04.889Z,13.39
2023-03-14T14:45:37.121Z,13.32
2023-03-14T14:48:11.828Z,13.28
2023-03-14T14:50:51.945Z,13.23
2023-03-14T14:53:25.111Z,13.16
2023-03-14T14:55:57.168Z,13.10
2023-03-14T14:58:29.776Z,13.09
2023-03-14T15:00:59.582Z,14.25
2023-03-14T15:03:32.586Z,15.23
2023-03-14T15:06:03.701Z,14.51
2023-03-14T15:08:34.975Z,13.94
2023-03-14T15:11:14.169Z,13.49
2023-03-14T15:13:45.216Z,14.25
2023-03-14T15:16:18.000Z,14.93
2023-03-14T15:18:50.476Z,14.20
2023-03-14T15:21:21.224Z,13.63
2023-03-14T15:23:52.618Z,14.18
2023-03-14T15:26:24.925Z,15.19
2023-03-14T15:28:56.180Z,15.09
2023-03-14T15:31:27.175Z,14.33
2023-03-14T15:33:58.659Z,13.67
2023-03-14T15:36:32.097Z,14.31
2023-03-14T15:39:03.481Z,15.54
2023-03-14T15:41:34.864Z,14.85
2023-03-14T15:44:06.404Z,14.02
2023-03-14T15:46:38.740Z,13.72
2023-03-14T15:49:10.887Z,14.97
2023-03-14T15:51:42.284Z,15.42
2023-03-14T15:54:13.800Z,14.41
2023-03-14T15:56:45.219Z,13.62
2023-03-14T15:59:16.284Z,14.06
2023-03-14T16:01:49.421Z,15.67
2023-03-14T16:04:21.848Z,15.10
2023-03-14T16:06:52.951Z,14.13
2023-03-14T16:09:25.297Z,14.56
2023-03-14T16:11:56.551Z,15.72
2023-03-14T16:14:29.648Z,15.61
2023-03-14T16:17:01.319Z,14.42
2023-03-14T16:19:33.601Z,14.62
2023-03-14T16:22:04.740Z,15.25
2023-03-14T16:24:36.155Z,15.76
2023-03-14T16:27:08.569Z,15.52
2023-03-14T16:29:40.279Z,14.75
2023-03-14T16:32:12.707Z,15.13
2023-03-14T16:34:43.895Z,15.15
2023-03-14T16:37:15.100Z,16.51
2023-03-14T16:40:10.263Z,15.76
2023-03-14T16:45:30.312Z,15.22
2023-03-14T16:48:01.621Z,15.99
2023-03-14T16:50:33.156Z,16.15
2023-03-14T16:53:04.119Z,16.02
2023-03-14T16:55:35.225Z,15.09
2023-03-14T16:58:06.850Z,14.76
2023-03-14T17:00:40.174Z,15.30
2023-03-14T17:03:12.279Z,15.70
2023-03-14T17:05:48.413Z,15.87
2023-03-14T17:08:20.249Z,16.16
2023-03-14T17:10:51.658Z,16.45
2023-03-14T17:13:26.026Z,16.75
2023-03-14T17:15:58.477Z,16.71
2023-03-14T17:18:30.047Z,16.48
2023-03-14T17:21:01.714Z,15.45
2023-03-14T17:23:33.534Z,14.56
2023-03-14T17:26:04.736Z,14.85
2023-03-14T17:28:36.043Z,15.36
2023-03-14T17:31:08.674Z,15.48
2023-03-14T17:33:42.396Z,15.59
2023-03-14T17:36:18.587Z,15.79
2023-03-14T17:38:58.617Z,16.26
2023-03-14T17:41:31.849Z,16.18
2023-03-14T17:44:03.005Z,15.66
2023-03-14T17:46:34.195Z,15.06
2023-03-14T17:49:07.145Z,15.63
2023-03-14T17:51:38.702Z,16.15
2023-03-14T17:54:10.119Z,16.49
2023-03-14T17:56:44.163Z,16.61
2023-03-14T17:59:15.673Z,15.57
2023-03-14T18:01:46.594Z,14.73
2023-03-14T18:04:17.710Z,15.17
2023-03-14T18:06:48.805Z,15.82
2023-03-14T18:09:19.743Z,16.56
2023-03-14T18:11:58.821Z,15.20
2023-03-14T18:14:33.465Z,14.87
2023-03-14T18:17:04.548Z,16.07
2023-03-14T18:19:35.898Z,16.07
2023-03-14T18:22:07.021Z,14.86
2023-03-14T18:24:41.874Z,14.69
2023-03-14T18:27:13.021Z,15.05
2023-03-14T18:29:44.591Z,16.00
2023-03-14T18:32:15.790Z,16.22
2023-03-14T18:34:47.591Z,15.37
2023-03-14T18:37:22.482Z,14.30
2023-03-14T18:39:54.447Z,14.56
2023-03-14T18:42:25.394Z,15.47
2023-03-14T18:44:56.660Z,15.78
2023-03-14T18:47:28.703Z,16.14
2023-03-14T18:50:00.281Z,16.17
2023-03-14T18:52:31.707Z,15.30
2023-03-14T18:55:03.506Z,14.19
2023-03-14T18:57:34.597Z,13.89
2023-03-14T19:00:13.170Z,14.78
2023-03-14T19:02:48.000Z,15.56
2023-03-14T19:05:20.933Z,16.04
2023-03-14T19:07:51.882Z,16.10
2023-03-14T19:10:24.241Z,15.01
2023-03-14T19:12:59.590Z,14.23
2023-03-14T19:15:36.829Z,14.84
2023-03-14T19:18:11.985Z,15.46
2023-03-14T19:20:59.220Z,15.89
2023-03-14T19:23:37.928Z,15.30
2023-03-14T19:26:11.730Z,14.14
2023-03-14T19:28:45.165Z,13.55
2023-03-14T19:31:20.229Z,14.30
2023-03-14T19:33:51.420Z,15.09
2023-03-14T19:36:24.459Z,15.72
2023-03-14T19:38:58.210Z,15.54
2023-03-14T19:41:29.841Z,14.52
2023-03-14T19:44:01.663Z,13.57
2023-03-14T19:46:35.106Z,14.13
2023-03-14T19:49:06.496Z,14.88
2023-03-14T19:51:38.036Z,15.58
2023-03-14T19:54:10.390Z,15.14
2023-03-14T19:56:42.332Z,13.85
2023-03-14T19:59:15.652Z,13.24
2023-03-14T20:01:49.399Z,14.02
2023-03-14T20:04:23.889Z,14.82
2023-03-14T20:06:55.635Z,15.29
2023-03-14T20:09:28.916Z,15.61
2023-03-14T20:12:00.365Z,15.63
2023-03-14T20:14:31.465Z,14.67
2023-03-14T20:17:02.751Z,13.65
2023-03-14T20:19:33.702Z,12.92
2023-03-14T20:22:04.883Z,12.68
2023-03-14T20:24:43.155Z,13.60
2023-03-14T20:27:14.405Z,14.56
2023-03-14T20:29:45.674Z,15.09
2023-03-14T20:32:18.911Z,15.41
2023-03-14T20:34:49.996Z,14.88
2023-03-14T20:37:23.276Z,13.78
2023-03-14T20:40:03.615Z,12.94
2023-03-14T20:42:39.823Z,12.64
2023-03-14T20:45:16.893Z,13.59
2023-03-14T20:47:49.108Z,14.46
2023-03-14T20:50:23.448Z,14.98
2023-03-14T20:52:57.286Z,15.29
2023-03-14T20:55:28.517Z,15.22
2023-03-14T20:58:00.842Z,14.18
2023-03-14T21:00:32.310Z,13.17
2023-03-14T21:03:09.925Z,12.40
2023-03-14T21:05:44.444Z,12.08
2023-03-14T21:08:27.850Z,13.05
2023-03-14T21:11:01.220Z,14.00
2023-03-14T21:13:38.906Z,14.59
2023-03-14T21:16:10.594Z,14.98
2023-03-14T21:18:44.342Z,14.99
2023-03-14T21:21:30.934Z,13.95
2023-03-14T21:24:05.860Z,12.74
2023-03-14T21:26:36.801Z,11.97
2023-03-14T21:29:08.562Z,12.14
2023-03-14T21:31:40.554Z,13.36
2023-03-14T21:34:12.381Z,13.68
2023-03-14T21:36:44.153Z,12.62
2023-03-14T21:39:15.996Z,11.77
2023-03-14T21:41:47.260Z,12.26
2023-03-14T21:44:20.800Z,13.33
2023-03-14T21:46:52.083Z,13.80
2023-03-14T21:49:26.304Z,12.80
2023-03-14T21:51:57.177Z,11.83
2023-03-14T21:54:31.625Z,12.08
2023-03-14T21:57:02.918Z,13.23
2023-03-14T21:59:35.449Z,13.09
2023-03-14T22:02:07.658Z,11.96
2023-03-14T22:04:44.039Z,11.65
2023-03-14T22:07:18.781Z,12.85
2023-03-14T22:09:51.852Z,13.64
2023-03-14T22:12:23.146Z,12.72
2023-03-14T22:14:54.645Z,11.83
2023-03-14T22:17:28.237Z,12.52
2023-03-14T22:19:59.474Z,13.62
2023-03-14T22:22:30.331Z,13.08
2023-03-14T22:25:01.671Z,12.02
2023-03-14T22:27:32.322Z,11.30
2023-03-14T22:30:03.737Z,11.11
2023-03-14T22:32:34.829Z,12.17
2023-03-14T22:35:06.660Z,13.41
2023-03-14T22:37:38.251Z,13.74
2023-03-14T22:40:11.671Z,12.96
2023-03-14T22:42:42.851Z,12.15
2023-03-14T22:45:14.193Z,11.79
2023-03-14T22:47:45.100Z,12.74
2023-03-14T22:50:16.864Z,13.76
2023-03-14T22:52:47.798Z,14.43
2023-03-14T22:55:19.453Z,14.21
2023-03-14T22:57:52.163Z,13.14
2023-03-14T23:00:24.130Z,12.29
2023-03-14T23:02:55.138Z,11.99
2023-03-14T23:05:26.578Z,12.81
2023-03-14T23:07:58.097Z,13.81
2023-03-14T23:10:29.392Z,12.97
2023-03-14T23:13:00.317Z,12.16
2023-03-14T23:15:31.571Z,11.99
2023-03-14T23:18:02.763Z,13.23
2023-03-14T23:20:34.167Z,13.79
2023-03-14T23:23:08.690Z,12.88
2023-03-14T23:25:52.990Z,12.20
2023-03-14T23:28:24.591Z,12.72
2023-03-14T23:30:59.696Z,13.70
2023-03-14T23:33:31.834Z,14.00
2023-03-14T23:36:04.508Z,12.94
2023-03-14T23:38:36.014Z,12.14
2023-03-14T23:41:07.375Z,12.82
2023-03-14T23:43:38.828Z,13.94
2023-03-14T23:46:10.546Z,12.97
2023-03-14T23:48:47.481Z,12.87
2023-03-14T23:51:18.926Z,14.13
2023-03-14T23:53:49.844Z,13.52
2023-03-14T23:56:21.463Z,12.59
2023-03-14T23:58:52.453Z,13.46
